Time;durP1;ratioP1;P1;durP2;ratioP2;P2;SDS_P1;SDS_P2;PMS_P1;PMS_P2;Temp;Humidity;BMP_temperature;BMP_pressure;BME280_temperature;BME280_humidity;BME280_pressure;Samples;Min_cycle;Max_cycle;Signal;HPM_P1;HPM_P2
2023/04/05 00:11:53;;;;;;;16.13;8.07;;;;;;;14.36;100.00;99573.69;31355481;28;20129;-74
2023/04/05 00:26:56;;;;;;;15.63;7.97;;;;;;;14.20;100.00;99541.97;31356579;28;20068;-76
2023/04/05 00:42:01;;;;;;;13.83;8.43;;;;;;;14.13;100.00;99541.53;31360225;28;20135;-76
2023/04/05 00:57:04;;;;;;;27.07;15.20;;;;;;;14.00;100.00;99528.78;31365199;28;20048;-75
2023/04/05 01:12:09;;;;;;;38.90;18.17;;;;;;;13.71;100.00;99506.66;31372117;28;20555;-75
2023/04/05 01:27:35;;;;;;;33.37;15.20;;;;;;;13.67;100.00;99503.34;31358792;28;20535;-76
2023/04/05 01:42:37;;;;;;;35.63;15.80;;;;;;;13.53;100.00;99485.56;31378602;28;20135;-75
2023/04/05 01:57:39;;;;;;;36.60;16.47;;;;;;;13.46;100.00;99485.13;31374165;28;20060;-75
2023/04/05 02:12:41;;;;;;;33.70;16.17;;;;;;;13.35;100.00;99439.22;31360107;28;20469;-75
2023/04/05 02:27:43;;;;;;;30.20;15.40;;;;;;;13.26;100.00;99439.94;31349850;28;20049;-75
2023/04/05 02:42:45;;;;;;;40.80;17.07;;;;;;;13.23;100.00;99402.69;31378962;28;20106;-75
2023/04/05 02:57:47;;;;;;;26.37;12.17;;;;;;;13.06;100.00;99348.91;31355636;28;20083;-76
2023/04/05 03:12:50;;;;;;;23.47;9.50;;;;;;;13.10;100.00;99323.03;31349001;28;20111;-75
2023/04/05 03:27:52;;;;;;;30.03;8.83;;;;;;;13.42;100.00;99320.94;31350071;28;20044;-75
2023/04/05 03:42:54;;;;;;;14.80;7.47;;;;;;;13.73;100.00;99335.13;31357399;28;20057;-75
2023/04/05 03:57:56;;;;;;;20.13;8.07;;;;;;;13.82;100.00;99326.91;31343668;28;20080;-74
2023/04/05 04:12:57;;;;;;;15.97;8.50;;;;;;;13.72;100.00;99321.94;31330510;28;20049;-76
2023/04/05 04:28:00;;;;;;;18.53;7.47;;;;;;;14.11;100.00;99304.53;31378538;28;20107;-77
2023/04/05 04:43:02;;;;;;;19.70;8.07;;;;;;;14.21;100.00;99302.53;31382863;28;20053;-75
2023/04/05 04:58:08;;;;;;;18.73;6.70;;;;;;;14.28;100.00;99302.19;31364906;28;20102;-77
2023/04/05 05:13:10;;;;;;;21.30;7.20;;;;;;;14.45;100.00;99297.88;31375052;28;20040;-76
2023/04/05 05:28:12;;;;;;;9.37;5.50;;;;;;;15.00;100.00;99267.47;31375359;28;20118;-75
2023/04/05 05:43:14;;;;;;;14.57;5.87;;;;;;;15.56;100.00;99290.38;31387577;28;20060;-76
2023/04/05 05:58:16;;;;;;;9.97;6.17;;;;;;;15.51;100.00;99277.31;31345110;28;20061;-77
2023/04/05 06:13:24;;;;;;;11.37;6.17;;;;;;;15.57;100.00;99259.06;31334454;28;20128;-80
2023/04/05 06:28:28;;;;;;;9.40;4.87;;;;;;;16.26;100.00;99231.00;31388457;28;20051;-80
2023/04/05 06:43:32;;;;;;;9.53;4.50;;;;;;;16.86;100.00;99226.00;31386784;28;20049;-76
2023/04/05 06:58:40;;;;;;;10.23;5.33;;;;;;;17.13;100.00;99224.78;31397567;28;20057;-78
2023/04/05 07:13:50;;;;;;;13.13;7.17;;;;;;;17.66;100.00;99213.28;31400991;28;20588;-79
2023/04/05 07:28:56;;;;;;;12.57;5.17;;;;;;;17.55;100.00;99196.72;31403021;28;20057;-79
2023/04/05 07:44:05;;;;;;;13.30;5.00;;;;;;;18.86;100.00;99203.94;31368202;28;20057;-78
2023/04/05 07:59:07;;;;;;;12.13;4.93;;;;;;;18.71;100.00;99188.38;31368973;28;20061;-82
2023/04/05 08:14:09;;;;;;;10.67;4.20;;;;;;;18.29;100.00;99205.69;31372316;28;20410;-77
2023/04/05 08:29:12;;;;;;;13.70;4.37;;;;;;;17.82;100.00;99220.88;31352665;28;20048;-84
2023/04/05 08:44:19;;;;;;;;;;;;;;;17.34;100.00;99248.16;31369075;28;20054;-82
2023/04/05 08:59:23;;;;;;;8.13;4.67;;;;;;;16.69;100.00;99262.19;31349945;28;20473;-76
2023/04/05 09:14:26;;;;;;;14.80;4.80;;;;;;;16.14;100.00;99264.91;31370364;28;20139;-81
2023/04/05 09:29:29;;;;;;;13.40;3.80;;;;;;;15.88;100.00;99327.72;31358087;28;20057;-78
2023/04/05 09:45:05;;;;;;;15.67;5.57;;;;;;;15.52;100.00;99317.13;31347130;28;20045;-76
2023/04/05 10:00:20;;;;;;;16.53;8.17;;;;;;;14.75;100.00;99311.66;31331858;28;20049;-78
2023/04/05 10:15:25;;;;;;;16.40;5.37;;;;;;;15.06;100.00;99295.66;31334737;28;20041;-77
2023/04/05 10:30:31;;;;;;;;;;;;;;;14.91;100.00;99270.25;31352383;28;20095;-77
2023/04/05 10:45:37;;;;;;;22.67;6.47;;;;;;;14.71;100.00;99256.44;31345062;28;19966;-79
2023/04/05 11:00:40;;;;;;;20.67;6.20;;;;;;;14.90;100.00;99241.41;31360907;28;20156;-80
2023/04/05 11:15:42;;;;;;;19.90;7.90;;;;;;;14.82;100.00;99221.16;31354285;28;20450;-78
2023/04/05 11:30:46;;;;;;;33.23;15.17;;;;;;;15.06;100.00;99232.78;31354097;28;20048;-80
2023/04/05 11:45:49;;;;;;;43.20;16.30;;;;;;;15.14;100.00;99249.56;31369466;28;20404;-79
2023/04/05 12:01:11;;;;;;;43.47;15.37;;;;;;;15.25;100.00;99239.59;31396519;28;20067;-79
2023/04/05 12:16:13;;;;;;;24.23;8.83;;;;;;;15.35;100.00;99243.72;31355796;28;20090;-79
2023/04/05 12:31:16;;;;;;;16.87;5.80;;;;;;;15.40;100.00;99244.31;31346194;28;20060;-82
2023/04/05 12:46:18;;;;;;;19.17;7.27;;;;;;;15.44;100.00;99255.81;31383835;28;20052;-80
2023/04/05 13:01:22;;;;;;;26.07;7.50;;;;;;;15.39;100.00;99259.94;31368569;28;20045;-84
2023/04/05 13:16:26;;;;;;;14.60;5.47;;;;;;;15.16;100.00;99242.41;31404947;28;20063;-84
2023/04/05 13:31:28;;;;;;;16.27;6.83;;;;;;;15.35;100.00;99221.84;31380543;28;20442;-80
2023/04/05 13:46:33;;;;;;;14.40;6.70;;;;;;;15.49;100.00;99225.06;31398373;28;20053;-85
2023/04/05 14:01:37;;;;;;;22.73;7.50;;;;;;;15.47;100.00;99227.53;31394158;28;20048;-82
2023/04/05 14:16:39;;;;;;;17.90;6.27;;;;;;;15.22;100.00;99229.59;31411775;28;20045;-81
2023/04/05 14:31:42;;;;;;;13.63;6.60;;;;;;;14.83;100.00;99225.41;31378656;28;20519;-88
2023/04/05 14:46:45;;;;;;;12.83;6.00;;;;;;;14.37;100.00;99255.00;31380037;28;20041;-80
2023/04/05 15:01:54;;;;;;;16.30;6.20;;;;;;;14.11;100.00;99243.75;31387776;28;20110;-83
2023/04/05 15:17:24;;;;;;;19.60;6.63;;;;;;;13.64;100.00;99256.81;31391230;28;20045;-93
2023/04/05 15:32:32;;;;;;;19.93;7.80;;;;;;;13.34;100.00;99265.97;31416262;28;20049;-86
2023/04/05 15:47:34;;;;;;;15.43;6.13;;;;;;;13.26;100.00;99267.47;31382294;28;20053;-78
2023/04/05 16:02:40;;;;;;;11.83;7.83;;;;;;;13.15;100.00;99273.41;31376640;28;20052;-85
2023/04/05 16:17:43;;;;;;;17.90;8.33;;;;;;;12.87;100.00;99272.63;31409604;28;20132;-84
2023/04/05 16:32:45;;;;;;;14.53;7.17;;;;;;;12.98;100.00;99277.63;31448526;28;20064;-88
2023/04/05 16:47:48;;;;;;;16.90;7.93;;;;;;;12.84;100.00;99272.78;31446415;28;20049;-77
2023/04/05 17:02:50;;;;;;;15.17;8.33;;;;;;;12.82;100.00;99286.84;31367017;28;20084;-78
2023/04/05 17:17:52;;;;;;;15.33;8.17;;;;;;;12.78;100.00;99308.00;31388712;28;20049;-76
2023/04/05 17:32:55;;;;;;;20.63;7.43;;;;;;;12.87;100.00;99316.22;31351077;28;20053;-75
2023/04/05 17:47:57;;;;;;;15.73;8.00;;;;;;;12.99;100.00;99311.84;31368305;28;20045;-77
2023/04/05 18:03:05;;;;;;;15.13;7.43;;;;;;;13.05;100.00;99337.25;31394648;28;20568;-77
2023/04/05 18:18:21;;;;;;;15.03;7.30;;;;;;;13.22;100.00;99308.53;31392113;28;20099;-75
2023/04/05 18:33:23;;;;;;;18.10;7.27;;;;;;;13.54;100.00;99311.81;31372920;28;20099;-75
2023/04/05 18:48:25;;;;;;;17.87;8.20;;;;;;;13.59;100.00;99313.94;31369888;28;20057;-76
2023/04/05 19:03:27;;;;;;;30.33;12.37;;;;;;;13.56;100.00;99303.94;31386049;28;20098;-77
2023/04/05 19:18:29;;;;;;;23.27;11.47;;;;;;;13.44;100.00;99293.97;31355423;28;20413;-78
2023/04/05 19:33:32;;;;;;;26.27;12.90;;;;;;;13.51;100.00;99290.91;31325824;28;20037;-76
2023/04/05 19:48:35;;;;;;;24.57;10.63;;;;;;;13.78;100.00;99309.94;31333144;28;20578;-76
2023/04/05 20:03:39;;;;;;;14.50;8.67;;;;;;;13.65;100.00;99309.38;31335648;28;20107;-78
2023/04/05 20:18:46;;;;;;;21.57;8.87;;;;;;;13.66;100.00;99324.53;31326957;28;20045;-76
2023/04/05 20:33:54;;;;;;;26.47;9.63;;;;;;;13.55;100.00;99318.78;31338133;28;20222;-77
2023/04/05 20:48:56;;;;;;;20.30;9.37;;;;;;;13.45;100.00;99328.22;31339715;28;20072;-77
2023/04/05 21:03:58;;;;;;;18.93;9.03;;;;;;;13.27;100.00;99327.00;31337411;28;20390;-77
2023/04/05 21:19:00;;;;;;;24.10;10.57;;;;;;;13.11;100.00;99323.78;31366151;28;20084;-77
2023/04/05 21:34:02;;;;;;;28.63;10.40;;;;;;;13.18;100.00;99335.19;31370567;28;20427;-76
2023/04/05 21:49:04;;;;;;;17.03;10.33;;;;;;;13.16;100.00;99350.47;31382075;28;20114;-77
2023/04/05 22:04:06;;;;;;;18.37;9.33;;;;;;;13.07;100.00;99353.91;31370143;28;20078;-76
2023/04/05 22:19:10;;;;;;;26.53;12.10;;;;;;;12.80;100.00;99362.03;31353106;28;20486;-77
2023/04/05 22:34:13;;;;;;;41.47;12.90;;;;;;;12.49;100.00;99357.44;31353928;28;20063;-76
2023/04/05 22:49:15;;;;;;;36.83;12.80;;;;;;;12.33;100.00;99397.72;31348516;28;20083;-75
2023/04/05 23:04:17;;;;;;;40.77;11.57;;;;;;;12.08;100.00;99393.22;31348248;28;20508;-75
2023/04/05 23:19:19;;;;;;;61.80;12.03;;;;;;;12.02;100.00;99403.16;31357279;28;20556;-79
2023/04/05 23:34:21;;;;;;;111.33;13.83;;;;;;;11.90;100.00;99400.06;31358422;28;20095;-76
2023/04/05 23:49:25;;;;;;;117.30;13.80;;;;;;;11.78;100.00;99400.91;31325590;28;20448;-77
